»·PEaware :: SKY74 KPRC-KHII

SKY74 :: KPRC-KHII

FLIGHT INFORMATION

Flight Status: Arrived
Operator:
Sky High Charters
More flights by this operator :: More flights under this callsign
Pilot: Charles C. (26995)
Aircraft: MCDONNELL-DOUGLAS SKYTRAIN C-47
(DC3)
More flights by this aircraft type
Origin: KPRC Love
United States
Destination: KHII Lake Havasu City
United States
More flights between these airports :: More routes between these airports
Route: WNSKI1 MUMTE V12 EED
File this flight plan on PilotEdge
Remarks:
Altitude:
(Current/Filed)
10,000ft
Speed:
(Current/Filed)
150kts
Departed: 30-Aug-20 09:05 AM
Arrived: 30-Aug-20 10:03 AM
Distance/Time
Traveled:
96nm/0:58
Distance/Time
To Go:
Arrived

Flight Plot

Page will automatically refresh every two minutes.

Flight plan parsing failed; only flown route is shown


Map Options




Map Legend


Flown Route
Filed Route
Departure Airport
Arrival Airport
Navaid (VOR, NDB)
Fix

Horizontal Profiles

Position Reports

Time Latitude Longitude Heading Altitude Ground
Speed
30-Aug-20 08:52 34.653848 -112.422575 130 4996ft 0kts
30-Aug-20 08:53 34.653848 -112.422575 130 4996ft 0kts
30-Aug-20 08:54 34.653848 -112.422575 130 4996ft 0kts
30-Aug-20 08:55 34.653848 -112.422575 130 4996ft 0kts
30-Aug-20 08:56 34.653848 -112.422575 130 4996ft 0kts
30-Aug-20 08:57 34.653808 -112.422515 124 4996ft 6kts
30-Aug-20 08:58 34.654751 -112.421172 43 4993ft 3kts
30-Aug-20 08:59 34.655020 -112.420843 47 4991ft 1kts
30-Aug-20 09:00 34.656745 -112.418531 41 4981ft 24kts
30-Aug-20 09:01 34.659477 -112.415594 40 4964ft 17kts
30-Aug-20 09:02 34.662682 -112.412122 121 4948ft 3kts
30-Aug-20 09:03 34.662006 -112.411648 208 4950ft 3kts
30-Aug-20 09:04 34.647477 -112.426751 225 5112ft 119kts
30-Aug-20 09:05 34.622019 -112.444257 163 5772ft 118kts
30-Aug-20 09:06 34.622873 -112.411591 61 6435ft 115kts
30-Aug-20 09:07 34.632922 -112.376377 122 7119ft 123kts
30-Aug-20 09:08 34.611208 -112.343691 136 7821ft 125kts
30-Aug-20 09:09 34.584824 -112.312566 137 8359ft 136kts
30-Aug-20 09:10 34.556473 -112.280463 136 8913ft 141kts
30-Aug-20 09:11 34.524052 -112.271883 219 9449ft 143kts
30-Aug-20 09:12 34.498154 -112.308981 235 9916ft 148kts
30-Aug-20 09:13 34.474699 -112.353940 234 10003ft 168kts
30-Aug-20 09:14 34.458630 -112.407652 263 9996ft 172kts
30-Aug-20 09:15 34.456144 -112.465634 266 9999ft 173kts
30-Aug-20 09:16 34.449658 -112.523273 266 10000ft 173kts
30-Aug-20 09:17 34.462415 -112.578583 296 10000ft 173kts
30-Aug-20 09:18 34.484926 -112.630216 301 9999ft 173kts
30-Aug-20 09:19 34.513005 -112.677822 305 9999ft 173kts
30-Aug-20 09:20 34.547510 -112.718622 322 9998ft 173kts
30-Aug-20 09:21 34.588354 -112.749242 328 9998ft 173kts
30-Aug-20 09:22 34.632049 -112.772514 348 9999ft 172kts
30-Aug-20 09:23 34.679596 -112.779898 353 9998ft 172kts
30-Aug-20 09:24 34.711990 -112.818108 301 9999ft 173kts
30-Aug-20 09:25 34.722015 -112.873834 270 10004ft 172kts
30-Aug-20 09:26 34.722866 -112.932038 270 9993ft 171kts
30-Aug-20 09:27 34.723621 -112.989657 270 9962ft 170kts
30-Aug-20 09:28 34.724379 -113.046605 270 9961ft 165kts
30-Aug-20 09:29 34.725974 -113.101777 271 9937ft 162kts
30-Aug-20 09:30 34.727902 -113.156381 271 9912ft 161kts
30-Aug-20 09:31 34.729796 -113.210633 271 9888ft 160kts
30-Aug-20 09:32 34.731660 -113.264752 270 9863ft 160kts
30-Aug-20 09:33 34.733489 -113.318707 270 9852ft 159kts
30-Aug-20 09:34 34.735294 -113.372448 270 9852ft 158kts
30-Aug-20 09:35 34.737068 -113.425936 270 9852ft 158kts
30-Aug-20 09:36 34.738817 -113.479365 270 9852ft 158kts
30-Aug-20 09:37 34.740548 -113.532861 270 9852ft 158kts
30-Aug-20 09:38 34.742261 -113.586384 270 9852ft 158kts
30-Aug-20 09:39 34.743931 -113.639787 270 9852ft 158kts
30-Aug-20 09:40 34.745536 -113.691566 270 9853ft 158kts
30-Aug-20 09:41 34.747177 -113.745203 270 9853ft 158kts
30-Aug-20 09:42 34.748791 -113.799008 269 9835ft 159kts
30-Aug-20 09:43 34.750115 -113.853183 269 9803ft 160kts
30-Aug-20 09:44 34.751659 -113.907596 269 9772ft 161kts
30-Aug-20 09:45 34.753203 -113.962012 269 9741ft 161kts
30-Aug-20 09:46 34.754667 -114.014166 269 10005ft 147kts
30-Aug-20 09:47 34.756074 -114.065361 269 10003ft 155kts
30-Aug-20 09:48 34.757566 -114.120310 269 9627ft 171kts
30-Aug-20 09:49 34.759196 -114.181380 269 8751ft 191kts
30-Aug-20 09:50 34.760892 -114.245951 269 7688ft 188kts
30-Aug-20 09:51 34.762487 -114.308745 269 6616ft 183kts
30-Aug-20 09:52 34.764112 -114.373787 269 5117ft 196kts
30-Aug-20 09:53 34.767166 -114.431624 271 5002ft 148kts
30-Aug-20 09:54 34.758267 -114.468448 178 5006ft 114kts
30-Aug-20 09:55 34.730082 -114.456484 168 4904ft 108kts
30-Aug-20 09:56 34.700216 -114.459743 201 4406ft 113kts
30-Aug-20 09:57 34.672087 -114.438466 149 3301ft 120kts
30-Aug-20 09:58 34.647754 -114.417492 154 2494ft 103kts
30-Aug-20 09:59 34.626205 -114.399281 141 1901ft 91kts
30-Aug-20 10:00 34.604883 -114.382216 148 1360ft 85kts
30-Aug-20 10:01 34.585959 -114.368847 152 897ft 72kts
30-Aug-20 10:02 34.573768 -114.360182 149 763ft 29kts
30-Aug-20 10:03 34.568915 -114.358831 263 745ft 23kts
30-Aug-20 10:04 34.568945 -114.360614 45 736ft 0kts
30-Aug-20 10:05 34.568945 -114.360614 45 736ft 0kts
30-Aug-20 10:06 34.568945 -114.360614 45 736ft 0kts
30-Aug-20 10:07 34.568945 -114.360614 45 736ft 0kts
30-Aug-20 10:08 34.568945 -114.360614 45 736ft 0kts
30-Aug-20 10:09 34.568945 -114.360614 45 736ft 0kts
30-Aug-20 10:10 34.568945 -114.360614 45 736ft 0kts
30-Aug-20 10:11 34.568945 -114.360614 45 736ft 0kts
30-Aug-20 10:12 34.568945 -114.360614 45 736ft 0kts
30-Aug-20 10:13 34.568945 -114.360614 45 736ft 0kts
30-Aug-20 10:14 34.568945 -114.360614 45 736ft 0kts
30-Aug-20 10:15 34.568945 -114.360614 45 736ft 0kts
30-Aug-20 10:16 34.568945 -114.360614 45 736ft 0kts

Navigation Log

Ident Type
Flight plan parsing failed, navigation log unavailable